Time;durP1;ratioP1;P1;durP2;ratioP2;P2;SDS_P1;SDS_P2;PMS_P1;PMS_P2;Temp;Humidity;BMP_temperature;BMP_pressure;BME280_temperature;BME280_humidity;BME280_pressure;Samples;Min_cycle;Max_cycle;Signal;HPM_P1;HPM_P2
2021/12/03 00:02:03;;;;;;;49.53;21.50;;;;;;;;;;5030148;28;20032;-75
2021/12/03 00:04:29;;;;;;;44.33;20.85;;;;;;;;;;5013209;28;20059;-73
2021/12/03 00:06:55;;;;;;;46.13;22.30;;;;;;;;;;5031236;28;20513;-70
2021/12/03 00:09:20;;;;;;;55.55;23.15;;;;;;;;;;5013021;28;20457;-73
2021/12/03 00:11:45;;;;;;;47.28;22.05;;;;;;;;;;5045759;28;20048;-74
2021/12/03 00:14:11;;;;;;;49.58;21.38;;;;;;;;;;5038241;28;20156;-72
2021/12/03 00:16:36;;;;;;;57.28;24.25;;;;;;;;;;5033297;28;20017;-73
2021/12/03 00:19:01;;;;;;;48.60;22.92;;;;;;;;;;5030795;28;20350;-71
2021/12/03 00:21:27;;;;;;;53.17;23.45;;;;;;;;;;5015188;28;20385;-72
2021/12/03 00:23:53;;;;;;;48.10;21.45;;;;;;;;;;5032597;28;20421;-70
2021/12/03 00:26:18;;;;;;;53.95;23.58;;;;;;;;;;5033035;28;20035;-70
2021/12/03 00:28:43;;;;;;;55.67;22.60;;;;;;;;;;5032263;28;20029;-73
2021/12/03 00:31:08;;;;;;;48.65;22.63;;;;;;;;;;5033153;28;20032;-73
2021/12/03 00:33:35;;;;;;;49.03;20.90;;;;;;;;;;5032386;28;20100;-71
2021/12/03 00:36:05;;;;;;;50.05;21.92;;;;;;;;;;5031341;28;20067;-70
2021/12/03 00:38:35;;;;;;;49.20;22.53;;;;;;;;;;5033253;28;20443;-70
2021/12/03 00:41:01;;;;;;;54.88;21.58;;;;;;;;;;5032684;28;20381;-71
2021/12/03 00:43:26;;;;;;;52.15;23.52;;;;;;;;;;5032976;28;20017;-71
2021/12/03 00:45:54;;;;;;;57.47;24.50;;;;;;;;;;5032968;28;20032;-70
2021/12/03 00:48:19;;;;;;;53.53;25.17;;;;;;;;;;5032266;28;20021;-71
2021/12/03 00:50:44;;;;;;;54.00;23.77;;;;;;;;;;5032607;28;20470;-73
2021/12/03 00:53:09;;;;;;;59.10;25.48;;;;;;;;;;5032856;28;20025;-70
2021/12/03 00:55:34;;;;;;;53.08;23.52;;;;;;;;;;5032388;28;20478;-70
2021/12/03 00:58:00;;;;;;;60.08;26.23;;;;;;;;;;5032342;28;20032;-70
2021/12/03 01:00:27;;;;;;;58.25;24.60;;;;;;;;;;5032078;28;20033;-70
2021/12/03 01:02:53;;;;;;;55.92;24.77;;;;;;;;;;5031173;28;20009;-70
2021/12/03 01:05:19;;;;;;;65.70;27.40;;;;;;;;;;5012366;28;20126;-71
2021/12/03 01:07:44;;;;;;;54.50;23.75;;;;;;;;;;5030586;28;20573;-74
2021/12/03 01:10:10;;;;;;;59.28;26.85;;;;;;;;;;5037049;28;20036;-70
2021/12/03 01:12:36;;;;;;;59.20;26.40;;;;;;;;;;5030064;28;20029;-71
2021/12/03 01:15:01;;;;;;;52.88;22.85;;;;;;;;;;5030051;28;20444;-71
2021/12/03 01:17:26;;;;;;;43.25;18.63;;;;;;;;;;5012394;28;20021;-70
2021/12/03 01:19:52;;;;;;;56.17;24.63;;;;;;;;;;5029857;28;20025;-70
2021/12/03 01:22:17;;;;;;;62.15;25.42;;;;;;;;;;5029585;28;20032;-76
2021/12/03 01:24:42;;;;;;;55.75;24.55;;;;;;;;;;5029491;28;20315;-70
2021/12/03 01:27:07;;;;;;;45.35;21.25;;;;;;;;;;5012675;28;20025;-74
2021/12/03 01:29:33;;;;;;;48.55;20.38;;;;;;;;;;5030064;28;20474;-70
2021/12/03 01:31:58;;;;;;;68.80;24.52;;;;;;;;;;5027958;28;20034;-73
2021/12/03 01:34:23;;;;;;;62.17;27.73;;;;;;;;;;5022558;28;20071;-70
2021/12/03 01:36:49;;;;;;;72.05;27.25;;;;;;;;;;5028953;28;20047;-70
2021/12/03 01:39:14;;;;;;;60.05;24.92;;;;;;;;;;5012175;28;20021;-70
2021/12/03 01:41:39;;;;;;;43.40;18.75;;;;;;;;;;5029497;28;20017;-70
2021/12/03 01:44:05;;;;;;;62.15;27.77;;;;;;;;;;5029875;28;20545;-70
2021/12/03 01:46:31;;;;;;;66.75;26.58;;;;;;;;;;5029831;28;20033;-73
2021/12/03 01:48:57;;;;;;;64.35;27.35;;;;;;;;;;5029473;28;20478;-71
2021/12/03 01:51:22;;;;;;;68.00;28.10;;;;;;;;;;5029239;28;20087;-70
2021/12/03 01:53:48;;;;;;;60.63;27.85;;;;;;;;;;5029723;28;20281;-70
2021/12/03 01:56:14;;;;;;;66.38;24.05;;;;;;;;;;5029392;28;20084;-70
2021/12/03 01:58:40;;;;;;;59.47;21.67;;;;;;;;;;5032613;28;20500;-70
2021/12/03 02:01:10;;;;;;;57.90;23.45;;;;;;;;;;5027928;28;20021;-70
2021/12/03 02:03:36;;;;;;;57.63;25.63;;;;;;;;;;5033678;28;20013;-70
2021/12/03 02:06:03;;;;;;;65.35;24.88;;;;;;;;;;5033491;28;20033;-70
2021/12/03 02:08:28;;;;;;;61.50;25.35;;;;;;;;;;5038923;28;20025;-70
2021/12/03 02:10:53;;;;;;;63.30;25.13;;;;;;;;;;5039869;28;20470;-71
2021/12/03 02:13:19;;;;;;;55.90;24.60;;;;;;;;;;5032637;28;20060;-70
2021/12/03 02:15:44;;;;;;;55.00;23.90;;;;;;;;;;5032435;28;20022;-70
2021/12/03 02:18:11;;;;;;;65.13;25.88;;;;;;;;;;5033101;28;20017;-71
2021/12/03 02:21:03;;;;;;;60.50;22.27;;;;;;;;;;5033069;28;20022;-70
2021/12/03 02:23:28;;;;;;;54.92;24.35;;;;;;;;;;5029466;28;20073;-71
2021/12/03 02:25:54;;;;;;;54.10;21.85;;;;;;;;;;5033455;28;20064;-70
2021/12/03 02:28:21;;;;;;;57.35;25.33;;;;;;;;;;5032728;28;21319;-72
2021/12/03 02:30:47;;;;;;;61.83;25.10;;;;;;;;;;5032835;28;20470;-70
2021/12/03 02:33:12;;;;;;;51.17;19.65;;;;;;;;;;5032480;28;20013;-70
2021/12/03 02:35:40;;;;;;;60.22;26.08;;;;;;;;;;5033180;28;20107;-70
2021/12/03 02:38:06;;;;;;;55.00;23.23;;;;;;;;;;5030493;28;20028;-71
2021/12/03 02:40:31;;;;;;;66.70;26.33;;;;;;;;;;5032344;28;20029;-70
2021/12/03 02:42:56;;;;;;;55.90;22.73;;;;;;;;;;5032364;28;20018;-70
2021/12/03 02:45:22;;;;;;;55.53;23.35;;;;;;;;;;5032425;28;20045;-70
2021/12/03 02:47:47;;;;;;;50.95;21.48;;;;;;;;;;5032359;28;20021;-71
2021/12/03 02:50:13;;;;;;;42.13;17.05;;;;;;;;;;5032263;28;20033;-75
2021/12/03 02:52:38;;;;;;;64.88;24.50;;;;;;;;;;5032752;28;20023;-73
2021/12/03 02:55:04;;;;;;;44.80;17.40;;;;;;;;;;5032882;28;20060;-70
2021/12/03 02:57:29;;;;;;;64.28;26.25;;;;;;;;;;5031950;28;20022;-70
2021/12/03 02:59:54;;;;;;;57.05;20.88;;;;;;;;;;5032513;28;20465;-73
2021/12/03 03:02:20;;;;;;;62.20;25.08;;;;;;;;;;5013832;28;20429;-70
2021/12/03 03:04:45;;;;;;;61.75;24.30;;;;;;;;;;5031965;28;20535;-73
2021/12/03 03:07:10;;;;;;;66.75;25.90;;;;;;;;;;5031910;28;20253;-71
2021/12/03 03:09:35;;;;;;;60.42;26.08;;;;;;;;;;5031185;28;20113;-73
2021/12/03 03:12:01;;;;;;;57.38;23.88;;;;;;;;;;5031684;28;20065;-71
2021/12/03 03:14:26;;;;;;;57.92;26.17;;;;;;;;;;5032047;28;20120;-72
2021/12/03 03:16:52;;;;;;;55.67;25.40;;;;;;;;;;5032469;28;20032;-74
2021/12/03 03:19:18;;;;;;;56.40;21.45;;;;;;;;;;5031513;28;20389;-74
2021/12/03 03:21:44;;;;;;;63.70;23.15;;;;;;;;;;5032269;28;20032;-71
2021/12/03 03:24:09;;;;;;;55.15;21.38;;;;;;;;;;5031265;28;20025;-70
2021/12/03 03:26:35;;;;;;;56.35;23.38;;;;;;;;;;5031835;28;20500;-70
2021/12/03 03:29:01;;;;;;;64.88;26.30;;;;;;;;;;5014064;28;20116;-70
2021/12/03 03:31:26;;;;;;;61.58;25.48;;;;;;;;;;5030987;28;20013;-70
2021/12/03 03:33:51;;;;;;;57.50;23.80;;;;;;;;;;5031761;28;20029;-70
2021/12/03 03:36:16;;;;;;;73.32;26.05;;;;;;;;;;5031038;28;20021;-70
2021/12/03 03:38:41;;;;;;;61.33;24.73;;;;;;;;;;5031915;28;20032;-70
2021/12/03 03:41:07;;;;;;;55.65;21.45;;;;;;;;;;5031303;28;20021;-70
2021/12/03 03:43:32;;;;;;;59.58;24.13;;;;;;;;;;5031738;28;20021;-75
2021/12/03 03:45:57;;;;;;;55.13;22.25;;;;;;;;;;5031943;28;20036;-70
2021/12/03 03:48:24;;;;;;;60.60;24.45;;;;;;;;;;5030990;28;20437;-72
2021/12/03 03:50:49;;;;;;;48.28;20.00;;;;;;;;;;5030822;28;20026;-70
2021/12/03 03:53:14;;;;;;;58.72;23.52;;;;;;;;;;5030616;28;20064;-72
2021/12/03 03:55:40;;;;;;;49.58;20.58;;;;;;;;;;5030155;28;20481;-70
2021/12/03 03:58:05;;;;;;;48.13;19.55;;;;;;;;;;5031346;28;20359;-73
2021/12/03 04:00:32;;;;;;;45.28;18.15;;;;;;;;;;5031347;28;20355;-70
2021/12/03 04:02:57;;;;;;;64.00;23.70;;;;;;;;;;5031366;28;20029;-70
2021/12/03 04:05:22;;;;;;;52.60;19.45;;;;;;;;;;5030178;28;20020;-71
2021/12/03 04:07:48;;;;;;;57.08;20.67;;;;;;;;;;5013248;28;20021;-70
2021/12/03 04:10:13;;;;;;;63.85;25.85;;;;;;;;;;5035508;28;20034;-72
2021/12/03 04:12:39;;;;;;;52.28;21.77;;;;;;;;;;5029876;28;20489;-70
2021/12/03 04:15:05;;;;;;;59.22;21.52;;;;;;;;;;5031298;28;20053;-70
2021/12/03 04:17:31;;;;;;;57.80;21.02;;;;;;;;;;5031556;28;20033;-73
2021/12/03 04:19:56;;;;;;;57.65;20.50;;;;;;;;;;5030772;28;20017;-70
2021/12/03 04:22:24;;;;;;;39.65;15.63;;;;;;;;;;5030910;28;20020;-71
2021/12/03 04:24:50;;;;;;;33.47;12.35;;;;;;;;;;5005757;28;20033;-70
2021/12/03 04:27:16;;;;;;;34.30;13.60;;;;;;;;;;5031211;28;20037;-73
2021/12/03 04:29:41;;;;;;;30.52;11.63;;;;;;;;;;5030939;28;20029;-70
2021/12/03 04:32:08;;;;;;;49.40;19.20;;;;;;;;;;5031092;28;20022;-70
2021/12/03 04:34:33;;;;;;;58.65;22.75;;;;;;;;;;5026712;28;20053;-71
2021/12/03 04:36:58;;;;;;;34.30;13.02;;;;;;;;;;5030663;28;20057;-74
2021/12/03 04:39:23;;;;;;;57.00;22.15;;;;;;;;;;5031165;28;20025;-70
2021/12/03 04:41:48;;;;;;;37.63;16.50;;;;;;;;;;5030412;28;20475;-71
2021/12/03 04:44:14;;;;;;;26.92;9.48;;;;;;;;;;5030952;28;20566;-70
2021/12/03 04:46:39;;;;;;;39.42;15.07;;;;;;;;;;5030723;28;20021;-72
2021/12/03 04:49:04;;;;;;;51.35;19.05;;;;;;;;;;5031055;28;20067;-73
2021/12/03 04:51:29;;;;;;;41.10;15.48;;;;;;;;;;5029995;28;20041;-71
2021/12/03 04:53:54;;;;;;;26.15;12.05;;;;;;;;;;5030351;28;20037;-71
2021/12/03 04:56:20;;;;;;;40.90;13.48;;;;;;;;;;5030515;28;20512;-72
2021/12/03 04:58:45;;;;;;;36.75;13.90;;;;;;;;;;5030549;28;20401;-70
2021/12/03 05:01:10;;;;;;;49.92;17.13;;;;;;;;;;5030398;28;20500;-71
2021/12/03 05:03:37;;;;;;;49.97;16.65;;;;;;;;;;5030407;28;20501;-70
2021/12/03 05:06:03;;;;;;;39.28;14.75;;;;;;;;;;5030485;28;20021;-73
2021/12/03 05:08:29;;;;;;;25.13;11.70;;;;;;;;;;5034422;28;20013;-72
2021/12/03 05:10:55;;;;;;;21.40;10.10;;;;;;;;;;5030494;28;20033;-72
2021/12/03 05:13:22;;;;;;;45.08;18.38;;;;;;;;;;5029875;28;20033;-70
2021/12/03 05:15:47;;;;;;;30.83;14.60;;;;;;;;;;5030580;28;20017;-75
2021/12/03 05:18:15;;;;;;;35.03;12.27;;;;;;;;;;5031210;28;20367;-70
2021/12/03 05:20:41;;;;;;;52.30;19.13;;;;;;;;;;5030236;28;20017;-70
2021/12/03 05:23:06;;;;;;;20.70;7.82;;;;;;;;;;5030293;28;20080;-71
2021/12/03 05:25:32;;;;;;;18.25;8.98;;;;;;;;;;5030621;28;20381;-70
2021/12/03 05:27:57;;;;;;;42.08;15.90;;;;;;;;;;5030505;28;20307;-70
2021/12/03 05:30:22;;;;;;;29.67;12.63;;;;;;;;;;5029705;28;20029;-72
2021/12/03 05:32:48;;;;;;;42.95;17.20;;;;;;;;;;5032039;28;20509;-73
2021/12/03 05:35:13;;;;;;;42.78;16.02;;;;;;;;;;5034367;28;20113;-70
2021/12/03 05:37:38;;;;;;;44.30;16.05;;;;;;;;;;5034260;28;20025;-71
2021/12/03 05:40:04;;;;;;;29.23;13.27;;;;;;;;;;5033989;28;20026;-71
2021/12/03 05:42:29;;;;;;;32.33;14.90;;;;;;;;;;5034040;28;20009;-71
2021/12/03 05:44:55;;;;;;;28.20;10.32;;;;;;;;;;5035336;28;20495;-70
2021/12/03 05:47:20;;;;;;;34.80;10.52;;;;;;;;;;5031608;28;20022;-70
2021/12/03 05:49:45;;;;;;;33.10;13.88;;;;;;;;;;5031954;28;20040;-75
2021/12/03 05:52:11;;;;;;;37.95;14.60;;;;;;;;;;5031565;28;20168;-70
2021/12/03 05:54:36;;;;;;;28.90;9.52;;;;;;;;;;5031636;28;20385;-73
2021/12/03 05:57:01;;;;;;;34.58;12.98;;;;;;;;;;5030948;28;20394;-72
2021/12/03 05:59:27;;;;;;;30.77;11.25;;;;;;;;;;5031413;28;20347;-74
2021/12/03 06:01:52;;;;;;;26.58;8.65;;;;;;;;;;5036948;28;20517;-70
2021/12/03 06:04:17;;;;;;;28.03;10.13;;;;;;;;;;5039252;28;20016;-72
2021/12/03 06:06:42;;;;;;;31.30;11.15;;;;;;;;;;5038951;28;20279;-71
2021/12/03 06:09:07;;;;;;;9.48;4.97;;;;;;;;;;5031622;28;20454;-72
2021/12/03 06:11:34;;;;;;;29.30;11.40;;;;;;;;;;5013933;28;20017;-72
2021/12/03 06:13:59;;;;;;;20.45;8.52;;;;;;;;;;5030697;28;20115;-72
2021/12/03 06:16:24;;;;;;;30.90;11.48;;;;;;;;;;5029938;28;20482;-70
2021/12/03 06:18:50;;;;;;;35.88;11.95;;;;;;;;;;5030583;28;20057;-71
2021/12/03 06:21:15;;;;;;;31.45;13.02;;;;;;;;;;5030460;28;20028;-71
2021/12/03 06:23:41;;;;;;;19.80;7.30;;;;;;;;;;5031611;28;20032;-73
2021/12/03 06:26:07;;;;;;;33.50;11.85;;;;;;;;;;5033622;28;20028;-75
2021/12/03 06:28:33;;;;;;;31.63;10.45;;;;;;;;;;5039660;28;20389;-73
2021/12/03 06:30:59;;;;;;;27.90;12.20;;;;;;;;;;5038220;28;20072;-72
2021/12/03 06:33:24;;;;;;;23.73;8.73;;;;;;;;;;5031795;28;20029;-74
2021/12/03 06:35:49;;;;;;;29.00;11.45;;;;;;;;;;5013352;28;20028;-70
2021/12/03 06:38:15;;;;;;;21.60;7.25;;;;;;;;;;5031528;28;20029;-73
2021/12/03 06:40:41;;;;;;;21.98;6.93;;;;;;;;;;5030762;28;20025;-70
2021/12/03 06:43:06;;;;;;;33.33;10.55;;;;;;;;;;5031405;28;20493;-72
2021/12/03 06:45:31;;;;;;;26.70;9.50;;;;;;;;;;5029258;28;20071;-73
2021/12/03 06:47:57;;;;;;;21.40;8.27;;;;;;;;;;5030642;28;20137;-72
2021/12/03 06:50:23;;;;;;;29.33;11.10;;;;;;;;;;5012743;28;20025;-70
2021/12/03 06:52:56;;;;;;;25.85;10.40;;;;;;;;;;5031384;28;20063;-72
2021/12/03 06:55:22;;;;;;;22.55;9.73;;;;;;;;;;5012752;28;20501;-71
2021/12/03 06:57:47;;;;;;;24.92;9.73;;;;;;;;;;5032874;28;20056;-72
2021/12/03 07:00:13;;;;;;;31.17;10.45;;;;;;;;;;5037382;28;20033;-73
2021/12/03 07:02:39;;;;;;;12.38;4.82;;;;;;;;;;5032221;28;20028;-70
2021/12/03 07:05:04;;;;;;;14.18;5.15;;;;;;;;;;5029128;28;20017;-70
2021/12/03 07:07:30;;;;;;;29.15;10.05;;;;;;;;;;5035661;28;20017;-70
2021/12/03 07:09:56;;;;;;;25.25;10.80;;;;;;;;;;5032554;28;20032;-72
2021/12/03 07:12:21;;;;;;;17.88;6.50;;;;;;;;;;5032208;28;20040;-72
2021/12/03 07:14:46;;;;;;;34.47;8.73;;;;;;;;;;5032651;28;20544;-69
2021/12/03 07:17:11;;;;;;;30.67;8.75;;;;;;;;;;5032402;28;20033;-73
2021/12/03 07:19:37;;;;;;;20.90;10.10;;;;;;;;;;5032668;28;20072;-69
2021/12/03 07:22:02;;;;;;;34.78;10.27;;;;;;;;;;5032108;28;20017;-73
2021/12/03 07:24:27;;;;;;;22.75;7.63;;;;;;;;;;5032451;28;20041;-71
2021/12/03 07:26:52;;;;;;;21.92;6.47;;;;;;;;;;5034031;28;20022;-71
2021/12/03 07:29:18;;;;;;;25.52;10.18;;;;;;;;;;5031789;28;20026;-69
2021/12/03 07:31:44;;;;;;;31.50;9.88;;;;;;;;;;5013228;28;20539;-70
2021/12/03 07:34:11;;;;;;;18.23;5.22;;;;;;;;;;5023968;28;20424;-70
2021/12/03 07:36:36;;;;;;;25.65;7.95;;;;;;;;;;5031811;28;20025;-73
2021/12/03 07:39:02;;;;;;;27.33;9.05;;;;;;;;;;5025130;28;20072;-73
2021/12/03 07:41:27;;;;;;;28.00;7.88;;;;;;;;;;5013022;28;20057;-71
2021/12/03 07:43:52;;;;;;;24.95;9.88;;;;;;;;;;5014227;28;20405;-71
2021/12/03 07:46:18;;;;;;;17.63;7.60;;;;;;;;;;5013434;28;20485;-72
2021/12/03 07:48:46;;;;;;;9.02;4.38;;;;;;;;;;5031851;28;20044;-70
2021/12/03 07:51:13;;;;;;;27.83;6.03;;;;;;;;;;5031063;28;20021;-70
2021/12/03 07:53:38;;;;;;;37.22;8.80;;;;;;;;;;5031801;28;20021;-72
2021/12/03 07:56:03;;;;;;;13.45;4.45;;;;;;;;;;5031186;28;20086;-70
2021/12/03 07:58:29;;;;;;;29.25;9.50;;;;;;;;;;5031683;28;20032;-73
2021/12/03 08:00:54;;;;;;;22.15;7.68;;;;;;;;;;5031389;28;20040;-69
2021/12/03 08:03:21;;;;;;;25.70;6.10;;;;;;;;;;5030687;28;20374;-70
2021/12/03 08:05:46;;;;;;;6.55;3.85;;;;;;;;;;5014100;28;20032;-71
2021/12/03 08:08:11;;;;;;;26.45;5.68;;;;;;;;;;5031427;28;20033;-76
2021/12/03 08:10:37;;;;;;;26.02;7.68;;;;;;;;;;5013769;28;20033;-71
2021/12/03 08:13:02;;;;;;;24.48;6.13;;;;;;;;;;5031094;28;20029;-71
2021/12/03 08:15:28;;;;;;;22.65;8.40;;;;;;;;;;5029422;28;20018;-72
2021/12/03 08:17:53;;;;;;;25.27;7.70;;;;;;;;;;5033116;28;20053;-71
2021/12/03 08:20:18;;;;;;;12.10;3.72;;;;;;;;;;5031005;28;20650;-74
2021/12/03 08:22:44;;;;;;;14.52;6.18;;;;;;;;;;5030854;28;20014;-74
2021/12/03 08:25:09;;;;;;;36.63;8.65;;;;;;;;;;5030898;28;20028;-70
2021/12/03 08:27:34;;;;;;;17.17;6.57;;;;;;;;;;5030961;28;20025;-74
2021/12/03 08:30:00;;;;;;;14.57;4.47;;;;;;;;;;5014674;28;20023;-70
2021/12/03 08:32:25;;;;;;;33.75;7.55;;;;;;;;;;5030335;28;20033;-74
2021/12/03 08:34:50;;;;;;;22.87;5.93;;;;;;;;;;5013592;28;20022;-73
2021/12/03 08:37:15;;;;;;;13.60;5.03;;;;;;;;;;5028851;28;20291;-73
2021/12/03 08:39:41;;;;;;;11.00;4.22;;;;;;;;;;5030842;28;20045;-71
2021/12/03 08:42:07;;;;;;;20.55;6.45;;;;;;;;;;5029706;28;20029;-74
2021/12/03 08:44:33;;;;;;;18.58;5.05;;;;;;;;;;5013108;28;20021;-71
2021/12/03 08:47:03;;;;;;;16.75;5.68;;;;;;;;;;5030864;28;20527;-72
2021/12/03 08:49:31;;;;;;;14.60;4.50;;;;;;;;;;5013293;28;20441;-73
2021/12/03 08:57:10;;;;;;;12.25;4.05;;;;;;;;;;5030228;28;20119;-71
2021/12/03 08:59:35;;;;;;;27.58;7.22;;;;;;;;;;5028366;28;20033;-74
2021/12/03 09:02:00;;;;;;;15.57;5.40;;;;;;;;;;5029631;28;20026;-71
2021/12/03 09:04:25;;;;;;;14.98;4.55;;;;;;;;;;5028423;28;20028;-74
2021/12/03 09:06:51;;;;;;;10.57;4.05;;;;;;;;;;5029697;28;20013;-71
2021/12/03 09:09:16;;;;;;;10.60;3.38;;;;;;;;;;5017819;28;20530;-72
2021/12/03 09:11:42;;;;;;;14.50;3.93;;;;;;;;;;5001065;28;20032;-71
2021/12/03 09:14:16;;;;;;;13.50;3.70;;;;;;;;;;5017300;28;20272;-71
2021/12/03 09:16:43;;;;;;;9.25;3.08;;;;;;;;;;5030072;28;20040;-71
2021/12/03 09:19:16;;;;;;;11.95;3.85;;;;;;;;;;5030394;28;20018;-72
2021/12/03 09:21:42;;;;;;;18.90;3.75;;;;;;;;;;5030463;28;20021;-73
2021/12/03 09:24:11;;;;;;;11.75;2.88;;;;;;;;;;5031390;28;20071;-74
2021/12/03 09:26:39;;;;;;;15.65;2.97;;;;;;;;;;5030384;28;20018;-74
2021/12/03 09:29:07;;;;;;;19.15;3.97;;;;;;;;;;5030142;28;20022;-72
2021/12/03 09:31:35;;;;;;;13.15;2.70;;;;;;;;;;5030093;28;20028;-72
2021/12/03 09:34:00;;;;;;;7.38;2.20;;;;;;;;;;5029900;28;20018;-74
2021/12/03 09:36:26;;;;;;;7.40;2.45;;;;;;;;;;5030548;28;20036;-71
2021/12/03 09:38:51;;;;;;;5.20;1.45;;;;;;;;;;5030385;28;20316;-71
2021/12/03 09:41:20;;;;;;;11.02;1.95;;;;;;;;;;5029912;28;20040;-73
2021/12/03 09:43:47;;;;;;;13.73;3.40;;;;;;;;;;5029300;28;20060;-71
2021/12/03 09:46:18;;;;;;;13.00;2.30;;;;;;;;;;5029996;28;20406;-70
2021/12/03 09:51:13;;;;;;;10.67;4.63;;;;;;;;;;5029009;28;20033;-73
2021/12/03 09:54:04;;;;;;;12.30;2.80;;;;;;;;;;5029493;28;20018;-71
2021/12/03 09:56:28;;;;;;;5.43;2.05;;;;;;;;;;5025640;28;20592;-71
2021/12/03 10:01:44;;;;;;;13.40;3.22;;;;;;;;;;5029758;28;20745;-69
2021/12/03 10:12:26;;;;;;;8.88;2.60;;;;;;;;;;5029663;28;20033;-71
2021/12/03 10:28:41;;;;;;;17.73;3.88;;;;;;;;;;5011103;28;20164;-71
2021/12/03 10:34:04;;;;;;;15.13;2.40;;;;;;;;;;5027015;28;20024;-71
2021/12/03 10:58:20;;;;;;;12.63;2.22;;;;;;;;;;5021471;28;20395;-70
2021/12/03 11:11:40;;;;;;;12.55;2.03;;;;;;;;;;5031743;28;20029;-72
2021/12/03 11:58:48;;;;;;;3.42;2.08;;;;;;;;;;5031104;28;20528;-72
2021/12/03 12:10:26;;;;;;;20.65;3.95;;;;;;;;;;5023712;28;20123;-69
2021/12/03 12:27:15;;;;;;;13.30;3.78;;;;;;;;;;5030677;28;20079;-69
2021/12/03 12:35:25;;;;;;;6.03;2.45;;;;;;;;;;5031029;28;20065;-71
2021/12/03 12:41:33;;;;;;;6.13;1.52;;;;;;;;;;5028113;28;20033;-71
2021/12/03 13:08:31;;;;;;;3.78;1.70;;;;;;;;;;5039643;28;20027;-69
2021/12/03 13:11:36;;;;;;;7.72;2.40;;;;;;;;;;5011096;28;20026;-70
2021/12/03 13:25:37;;;;;;;11.10;2.42;;;;;;;;;;5032340;28;20524;-69
2021/12/03 13:28:38;;;;;;;9.05;3.17;;;;;;;;;;5029171;28;20509;-69
2021/12/03 13:40:05;;;;;;;14.55;1.42;;;;;;;;;;5029983;28;20025;-72
2021/12/03 13:46:14;;;;;;;5.30;2.80;;;;;;;;;;5030248;28;20083;-72
2021/12/03 14:05:11;;;;;;;8.95;2.60;;;;;;;;;;5033470;28;20028;-69
2021/12/03 14:21:07;;;;;;;8.95;1.83;;;;;;;;;;5037427;28;20100;-68
2021/12/03 14:36:48;;;;;;;7.63;2.05;;;;;;;;;;5030980;28;20082;-71
2021/12/03 14:47:05;;;;;;;8.13;2.35;;;;;;;;;;5032304;28;20049;-69
2021/12/03 14:52:16;;;;;;;7.63;2.75;;;;;;;;;;5032684;28;20032;-69
2021/12/03 15:02:59;;;;;;;10.13;3.10;;;;;;;;;;5028076;28;20136;-71
2021/12/03 15:05:53;;;;;;;5.35;2.53;;;;;;;;;;5032186;28;20029;-71
2021/12/03 15:08:23;;;;;;;5.97;1.80;;;;;;;;;;5029036;28;20036;-70
2021/12/03 15:21:59;;;;;;;8.20;2.70;;;;;;;;;;5003060;28;20060;-69
2021/12/03 15:30:18;;;;;;;2.40;1.55;;;;;;;;;;5027529;28;20045;-74
2021/12/03 15:32:51;;;;;;;4.95;1.63;;;;;;;;;;5007416;28;20030;-69
2021/12/03 15:35:32;;;;;;;8.52;1.83;;;;;;;;;;5025917;28;20033;-71
2021/12/03 15:38:10;;;;;;;3.78;2.55;;;;;;;;;;5024109;28;20022;-71
2021/12/03 16:05:16;;;;;;;2.15;1.50;;;;;;;;;;5023680;28;20027;-71
2021/12/03 16:10:15;;;;;;;2.22;1.13;;;;;;;;;;5027831;28;20018;-69
2021/12/03 16:18:28;;;;;;;8.88;2.47;;;;;;;;;;5024763;28;20036;-71
2021/12/03 16:47:57;;;;;;;4.32;2.13;;;;;;;;;;5020609;28;20035;-74
2021/12/03 16:51:12;;;;;;;2.85;1.35;;;;;;;;;;5023274;28;20041;-75
2021/12/03 16:53:11;;;;;;;8.80;2.60;;;;;;;;;;5015183;28;20087;-69
2021/12/03 16:55:37;;;;;;;9.00;2.75;;;;;;;;;;5028933;28;20064;-70
2021/12/03 16:58:02;;;;;;;9.10;2.83;;;;;;;;;;5043282;28;20060;-69
2021/12/03 17:00:30;;;;;;;9.95;3.20;;;;;;;;;;5030873;28;20021;-70
2021/12/03 17:03:43;;;;;;;0.90;0.70;;;;;;;;;;5026587;28;20025;-69
2021/12/03 17:14:34;;;;;;;3.97;1.45;;;;;;;;;;5025233;28;20091;-73
2021/12/03 17:56:51;;;;;;;2.67;1.23;;;;;;;;;;5033680;28;20027;-70
2021/12/03 17:59:19;;;;;;;5.50;2.10;;;;;;;;;;5045269;28;20029;-72
2021/12/03 18:04:20;;;;;;;8.73;2.38;;;;;;;;;;5038630;28;20358;-72
2021/12/03 18:43:16;;;;;;;3.70;1.90;;;;;;;;;;5042612;28;20405;-71
2021/12/03 18:52:29;;;;;;;5.57;2.80;;;;;;;;;;5031525;28;20056;-69
2021/12/03 18:57:27;;;;;;;4.65;1.77;;;;;;;;;;5038732;28;20124;-72
2021/12/03 18:59:55;;;;;;;3.72;2.20;;;;;;;;;;5036894;28;20040;-71
2021/12/03 19:02:23;;;;;;;5.88;3.38;;;;;;;;;;5032042;28;20036;-70
2021/12/03 19:04:57;;;;;;;6.03;2.25;;;;;;;;;;5032605;28;20045;-72
2021/12/03 19:07:39;;;;;;;5.13;2.63;;;;;;;;;;5030950;28;20083;-71
2021/12/03 19:10:10;;;;;;;1.80;0.98;;;;;;;;;;5019798;28;20781;-72
2021/12/03 19:12:39;;;;;;;3.95;2.20;;;;;;;;;;5042414;28;20029;-71
2021/12/03 19:15:06;;;;;;;8.73;2.60;;;;;;;;;;5044452;28;20459;-71
2021/12/03 19:17:36;;;;;;;13.32;4.47;;;;;;;;;;5032143;28;20032;-71
2021/12/03 19:20:03;;;;;;;;;;;;;;;;;;5032965;28;20410;-71
2021/12/03 19:22:28;;;;;;;4.45;2.47;;;;;;;;;;5043764;28;19916;-71
2021/12/03 19:24:57;;;;;;;5.55;2.33;;;;;;;;;;5031313;28;20025;-71
2021/12/03 19:27:24;;;;;;;6.25;2.67;;;;;;;;;;5025872;28;20506;-71
2021/12/03 19:29:50;;;;;;;4.22;2.10;;;;;;;;;;5024313;28;20120;-70
2021/12/03 19:32:15;;;;;;;2.05;1.23;;;;;;;;;;5023401;28;20227;-71
2021/12/03 19:34:40;;;;;;;10.85;2.50;;;;;;;;;;5024844;28;20027;-70
2021/12/03 19:37:06;;;;;;;4.55;2.60;;;;;;;;;;5027856;28;20029;-71
2021/12/03 19:39:31;;;;;;;10.07;2.58;;;;;;;;;;5040442;28;20013;-69
2021/12/03 19:42:20;;;;;;;9.52;3.47;;;;;;;;;;5039356;28;20034;-69
2021/12/03 19:44:51;;;;;;;3.72;2.13;;;;;;;;;;5026859;28;20041;-70
2021/12/03 19:47:19;;;;;;;6.10;2.10;;;;;;;;;;5039731;28;20109;-69
2021/12/03 19:52:24;;;;;;;4.95;2.08;;;;;;;;;;5022239;28;20929;-71
2021/12/03 19:54:49;;;;;;;4.13;2.33;;;;;;;;;;5024719;28;20067;-71
2021/12/03 19:57:14;;;;;;;3.40;2.08;;;;;;;;;;5026742;28;20029;-72
2021/12/03 19:59:40;;;;;;;6.82;2.70;;;;;;;;;;5023359;28;20477;-70
2021/12/03 20:02:05;;;;;;;2.25;1.88;;;;;;;;;;5031250;28;20501;-70
2021/12/03 20:04:30;;;;;;;5.53;2.17;;;;;;;;;;5019351;28;20433;-69
2021/12/03 20:06:55;;;;;;;3.28;1.70;;;;;;;;;;5042159;28;20078;-70
2021/12/03 20:09:24;;;;;;;3.60;1.80;;;;;;;;;;5033932;28;20029;-70
2021/12/03 20:11:53;;;;;;;6.70;1.73;;;;;;;;;;5037186;28;20104;-69
2021/12/03 20:14:20;;;;;;;3.97;1.80;;;;;;;;;;5039268;28;20397;-69
2021/12/03 20:16:59;;;;;;;5.05;2.10;;;;;;;;;;5038770;28;20057;-70
2021/12/03 20:22:12;;;;;;;6.72;1.73;;;;;;;;;;5035618;28;20033;-70
2021/12/03 20:25:16;;;;;;;3.25;1.70;;;;;;;;;;5040160;28;20060;-69
2021/12/03 20:27:47;;;;;;;4.80;1.92;;;;;;;;;;5037709;28;20029;-71
2021/12/03 20:30:36;;;;;;;1.48;0.75;;;;;;;;;;5041276;28;20021;-69
2021/12/03 20:38:32;;;;;;;8.15;1.85;;;;;;;;;;5029316;28;20052;-70
2021/12/03 20:41:01;;;;;;;6.38;1.27;;;;;;;;;;5029155;28;20401;-72
2021/12/03 20:44:42;;;;;;;3.65;2.25;;;;;;;;;;5040220;28;20036;-69
2021/12/03 20:49:21;;;;;;;7.28;2.05;;;;;;;;;;5029958;28;20052;-70
2021/12/03 21:10:23;;;;;;;4.53;2.17;;;;;;;;;;5038072;28;20068;-71
2021/12/03 21:12:50;;;;;;;5.38;2.20;;;;;;;;;;5029000;28;20025;-69
2021/12/03 21:15:30;;;;;;;1.85;1.13;;;;;;;;;;5032632;28;20165;-71
2021/12/03 21:21:06;;;;;;;4.10;1.23;;;;;;;;;;4954118;28;20423;-72
2021/12/03 21:23:34;;;;;;;4.53;1.08;;;;;;;;;;4957754;28;20030;-69
2021/12/03 21:26:01;;;;;;;2.20;1.10;;;;;;;;;;4998903;28;20052;-70
2021/12/03 21:39:37;;;;;;;1.10;0.82;;;;;;;;;;5027970;28;20072;-70
2021/12/03 21:42:03;;;;;;;1.55;0.80;;;;;;;;;;5038799;28;20064;-70
2021/12/03 21:44:28;;;;;;;4.03;1.40;;;;;;;;;;5040748;28;20063;-70
2021/12/03 21:46:53;;;;;;;1.08;0.57;;;;;;;;;;5031511;28;20025;-69
2021/12/03 21:49:19;;;;;;;2.00;1.00;;;;;;;;;;5034435;28;20071;-70
2021/12/03 21:51:44;;;;;;;1.92;0.90;;;;;;;;;;5042300;28;20287;-71
2021/12/03 21:54:10;;;;;;;0.65;0.40;;;;;;;;;;5038612;28;20025;-70
2021/12/03 21:56:36;;;;;;;1.42;0.88;;;;;;;;;;5011710;28;20028;-69
2021/12/03 21:59:01;;;;;;;2.33;1.17;;;;;;;;;;5031321;28;20021;-70
2021/12/03 22:01:26;;;;;;;3.72;1.27;;;;;;;;;;5038027;28;20021;-69
2021/12/03 22:03:52;;;;;;;1.33;0.80;;;;;;;;;;5032396;28;20022;-70
2021/12/03 22:06:19;;;;;;;2.83;1.20;;;;;;;;;;5028951;28;20068;-73
2021/12/03 22:08:45;;;;;;;1.58;1.00;;;;;;;;;;5030260;28;20017;-70
2021/12/03 22:11:10;;;;;;;2.28;0.40;;;;;;;;;;5027523;28;20511;-70
2021/12/03 22:13:35;;;;;;;1.63;0.98;;;;;;;;;;5031530;28;20028;-73
2021/12/03 22:16:01;;;;;;;1.23;0.63;;;;;;;;;;5030152;28;20075;-70
2021/12/03 22:18:27;;;;;;;0.75;0.60;;;;;;;;;;5041491;28;20085;-70
2021/12/03 22:20:53;;;;;;;2.50;1.23;;;;;;;;;;5038826;28;20017;-71
2021/12/03 22:23:18;;;;;;;1.20;0.52;;;;;;;;;;5042122;28;20457;-70
2021/12/03 22:25:43;;;;;;;3.00;1.38;;;;;;;;;;5039143;28;20029;-69